Time;durP1;ratioP1;P1;durP2;ratioP2;P2;SDS_P1;SDS_P2;PMS_P1;PMS_P2;Temp;Humidity;BMP_temperature;BMP_pressure;BME280_temperature;BME280_humidity;BME280_pressure;Samples;Min_cycle;Max_cycle;Signal;HPM_P1;HPM_P2
2022/01/30 00:01:36;;;;;;;15.43;2.60;;;6.90;99.90;;;;;;5069872;28;20177;-72
2022/01/30 00:04:01;;;;;;;25.87;3.57;;;7.00;99.90;;;;;;5062545;28;20271;-66
2022/01/30 00:06:27;;;;;;;19.00;3.03;;;6.80;1.00;;;;;;5065658;28;20180;-74
2022/01/30 00:08:52;;;;;;;11.27;2.50;;;6.80;99.90;;;;;;5066199;28;20644;-70
2022/01/30 00:11:22;;;;;;;26.07;3.60;;;6.80;1.40;;;;;;5066696;28;20208;-72
2022/01/30 00:13:48;;;;;;;15.67;3.00;;;6.80;99.90;;;;;;5062184;28;20181;-68
2022/01/30 00:16:16;;;;;;;25.50;5.20;;;6.80;1.40;;;;;;5063376;28;20419;-70
2022/01/30 00:21:14;;;;;;;10.27;3.03;;;6.80;99.90;;;;;;5065077;28;20782;-69
2022/01/30 00:23:49;;;;;;;17.40;4.17;;;6.80;99.90;;;;;;5061089;28;20181;-68
2022/01/30 00:26:17;;;;;;;19.97;5.10;;;6.80;99.90;;;;;;5062739;28;21041;-66
2022/01/30 00:28:42;;;;;;;13.63;3.73;;;6.80;99.90;;;;;;5065372;28;20770;-65
2022/01/30 00:31:08;;;;;;;15.77;4.60;;;6.70;99.90;;;;;;5065163;28;20557;-65
2022/01/30 00:33:34;;;;;;;8.13;2.63;;;6.80;99.90;;;;;;5036103;28;20196;-66
2022/01/30 00:36:00;;;;;;;12.70;3.30;;;6.80;99.90;;;;;;5060863;28;20601;-65
2022/01/30 00:38:26;;;;;;;11.87;3.70;;;6.60;99.90;;;;;;5062755;28;20192;-65
2022/01/30 00:40:52;;;;;;;17.77;3.47;;;6.60;99.90;;;;;;5067830;28;20202;-65
2022/01/30 00:43:19;;;;;;;18.13;4.10;;;6.70;99.90;;;;;;5063631;28;20807;-65
2022/01/30 00:45:46;;;;;;;14.60;3.57;;;6.70;99.90;;;;;;5061625;28;20419;-69
2022/01/30 00:48:12;;;;;;;19.17;3.00;;;6.60;99.90;;;;;;5062171;28;20416;-65
2022/01/30 00:50:38;;;;;;;19.50;3.10;;;6.70;99.90;;;;;;5065105;28;20480;-65
2022/01/30 00:53:04;;;;;;;13.00;3.20;;;6.60;99.90;;;;;;5064964;28;20188;-66
2022/01/30 00:55:31;;;;;;;15.17;4.00;;;6.70;99.90;;;;;;5061495;28;20843;-65
2022/01/30 00:57:57;;;;;;;16.00;3.90;;;6.60;99.90;;;;;;5061488;28;20541;-64
2022/01/30 01:00:24;;;;;;;30.93;4.17;;;6.60;99.90;;;;;;5067429;28;20477;-66
2022/01/30 01:02:49;;;;;;;19.47;4.80;;;6.60;99.90;;;;;;5064609;28;20434;-65
2022/01/30 01:05:15;;;;;;;22.00;4.70;;;6.60;99.90;;;;;;5045599;28;20430;-65
2022/01/30 01:07:45;;;;;;;18.80;3.10;;;6.70;99.90;;;;;;5061286;28;20188;-66
2022/01/30 01:23:35;;;;;;;23.20;4.87;;;6.60;99.90;;;;;;5062157;28;20466;-65
2022/01/30 01:26:01;;;;;;;18.90;4.10;;;6.60;99.90;;;;;;5060669;28;20459;-65
2022/01/30 01:28:27;;;;;;;29.73;4.60;;;6.60;99.90;;;;;;5063458;28;21360;-65
2022/01/30 01:30:53;;;;;;;19.20;4.47;;;6.70;99.90;;;;;;5064198;28;20184;-65
2022/01/30 01:33:21;;;;;;;21.10;3.83;;;6.60;99.90;;;;;;5062480;28;20431;-65
2022/01/30 01:35:46;;;;;;;24.27;5.30;;;6.50;99.90;;;;;;5060847;28;20451;-65
2022/01/30 01:38:14;;;;;;;30.33;4.80;;;6.50;99.90;;;;;;5061453;28;20931;-73
2022/01/30 01:40:42;;;;;;;14.00;3.40;;;6.50;99.90;;;;;;5066582;28;20180;-70
2022/01/30 01:43:07;;;;;;;21.77;4.87;;;6.60;99.90;;;;;;5064008;28;20422;-70
2022/01/30 01:45:37;;;;;;;23.70;4.03;;;6.50;99.90;;;;;;5060439;28;20481;-73
2022/01/30 01:48:09;;;;;;;20.93;4.27;;;6.50;99.90;;;;;;5060285;28;20196;-71
2022/01/30 01:50:40;;;;;;;19.70;4.80;;;6.50;99.90;;;;;;5059116;28;20446;-71
2022/01/30 01:53:08;;;;;;;29.03;6.80;;;6.50;99.90;;;;;;5060479;28;20443;-68
2022/01/30 01:55:34;;;;;;;19.53;4.00;;;6.50;99.90;;;;;;5063935;28;20468;-72
2022/01/30 01:57:59;;;;;;;18.57;3.80;;;6.50;99.90;;;;;;5063823;28;20431;-73
2022/01/30 02:00:25;;;;;;;38.27;4.10;;;6.60;99.90;;;;;;5063588;28;20415;-72
2022/01/30 02:02:50;;;;;;;19.80;4.77;;;6.50;99.90;;;;;;5063705;28;20280;-72
2022/01/30 02:05:16;;;;;;;20.77;4.40;;;6.50;1.00;;;;;;5062366;28;20215;-72
2022/01/30 02:10:47;;;;;;;19.97;3.70;;;6.40;1.00;;;;;;5064667;28;20859;-67
2022/01/30 02:24:36;;;;;;;20.30;3.83;;;6.40;1.00;;;;;;5061039;28;20551;-66
2022/01/30 02:27:03;;;;;;;22.50;3.60;;;6.40;1.00;;;;;;5045159;28;20441;-70
2022/01/30 02:29:29;;;;;;;23.23;3.43;;;6.30;1.00;;;;;;5060311;28;20459;-67
2022/01/30 02:31:57;;;;;;;16.40;4.80;;;6.30;1.00;;;;;;5059393;28;20482;-66
2022/01/30 02:34:27;;;;;;;20.33;3.47;;;6.30;1.00;;;;;;5061746;28;20431;-66
2022/01/30 02:36:53;;;;;;;20.67;3.83;;;6.30;1.00;;;;;;5063078;28;20418;-68
2022/01/30 02:39:20;;;;;;;13.00;2.77;;;6.30;1.00;;;;;;5043351;28;20480;-71
2022/01/30 02:41:46;;;;;;;19.03;4.07;;;6.30;1.00;;;;;;5061865;28;20208;-69
2022/01/30 02:44:18;;;;;;;12.57;5.10;;;6.30;1.00;;;;;;5060086;28;20452;-68
2022/01/30 02:46:47;;;;;;;18.67;4.40;;;6.20;1.00;;;;;;5062761;28;20443;-69
2022/01/30 02:50:12;;;;;;;16.67;3.73;;;6.20;1.00;;;;;;5061974;28;20449;-71
2022/01/30 02:52:05;;;;;;;24.20;4.30;;;6.20;1.00;;;;;;5048371;28;20535;-67
2022/01/30 02:54:32;;;;;;;25.57;5.30;;;6.20;1.00;;;;;;5062579;28;20438;-67
2022/01/30 02:56:58;;;;;;;13.30;3.57;;;6.20;1.00;;;;;;5062616;28;20434;-71
2022/01/30 02:59:24;;;;;;;16.70;4.10;;;6.30;1.00;;;;;;5060364;28;20415;-65
2022/01/30 03:01:50;;;;;;;16.93;5.90;;;6.20;1.00;;;;;;5063029;28;20431;-68
2022/01/30 03:04:16;;;;;;;14.90;3.50;;;6.20;1.00;;;;;;5060492;28;20279;-68
2022/01/30 03:06:42;;;;;;;16.30;3.87;;;6.10;1.00;;;;;;5062248;28;20454;-68
2022/01/30 03:09:09;;;;;;;24.63;3.77;;;6.10;1.00;;;;;;5062341;28;20914;-68
2022/01/30 03:11:35;;;;;;;15.50;3.40;;;6.10;1.00;;;;;;5061428;28;20240;-67
2022/01/30 03:14:02;;;;;;;17.70;4.30;;;6.20;1.00;;;;;;5059032;28;20912;-68
2022/01/30 03:16:28;;;;;;;23.13;4.43;;;6.10;1.00;;;;;;5061941;28;20222;-65
2022/01/30 03:18:53;;;;;;;19.97;3.30;;;6.10;1.00;;;;;;5044386;28;20430;-65
2022/01/30 03:21:19;;;;;;;13.03;3.07;;;6.10;1.00;;;;;;5060448;28;20648;-65
2022/01/30 03:23:45;;;;;;;12.13;4.20;;;6.10;1.00;;;;;;5058873;28;20637;-66
2022/01/30 03:26:12;;;;;;;14.47;3.03;;;6.10;1.00;;;;;;5058196;28;20497;-64
2022/01/30 03:28:40;;;;;;;21.40;5.70;;;6.10;1.00;;;;;;5062223;28;20652;-68
2022/01/30 03:31:08;;;;;;;11.63;3.20;;;6.10;1.00;;;;;;5062089;28;20508;-68
2022/01/30 03:33:34;;;;;;;15.57;3.80;;;6.00;1.00;;;;;;5058490;28;20420;-68
2022/01/30 03:36:00;;;;;;;14.53;2.87;;;6.00;1.00;;;;;;5058507;28;20439;-67
2022/01/30 03:38:26;;;;;;;8.70;2.63;;;5.90;1.00;;;;;;5061217;28;20995;-67
2022/01/30 03:40:52;;;;;;;19.57;3.10;;;6.00;1.00;;;;;;5064454;28;20514;-69
2022/01/30 03:43:18;;;;;;;17.10;3.93;;;6.00;1.00;;;;;;5060600;28;20841;-68
2022/01/30 03:45:45;;;;;;;16.27;3.60;;;6.00;1.00;;;;;;5058498;28;20438;-66
2022/01/30 03:48:12;;;;;;;9.20;3.37;;;6.00;1.00;;;;;;5058790;28;20419;-68
2022/01/30 03:50:38;;;;;;;14.43;2.50;;;6.00;1.00;;;;;;5044046;28;20517;-67
2022/01/30 03:53:04;;;;;;;16.20;3.87;;;6.00;1.00;;;;;;5061860;28;20470;-67
2022/01/30 03:55:30;;;;;;;24.63;3.20;;;6.00;1.00;;;;;;5040632;28;20477;-66
2022/01/30 03:57:55;;;;;;;12.40;2.60;;;6.10;1.00;;;;;;5058485;28;20436;-67
2022/01/30 04:00:21;;;;;;;8.10;2.80;;;6.00;1.00;;;;;;5064397;28;20177;-67
2022/01/30 04:02:47;;;;;;;11.40;4.10;;;6.10;1.00;;;;;;5061502;28;20185;-67
2022/01/30 04:05:13;;;;;;;13.40;4.57;;;6.00;1.00;;;;;;5061116;28;20492;-67
2022/01/30 04:07:42;;;;;;;13.53;3.83;;;6.00;1.00;;;;;;5058341;28;20215;-68
2022/01/30 04:10:08;;;;;;;10.33;2.60;;;6.00;1.00;;;;;;5060819;28;20423;-67
2022/01/30 04:12:34;;;;;;;7.00;2.30;;;6.00;1.00;;;;;;5043623;28;20478;-66
2022/01/30 04:15:00;;;;;;;13.73;2.90;;;6.00;1.00;;;;;;5061690;28;20926;-67
2022/01/30 04:17:26;;;;;;;16.30;3.83;;;5.90;1.00;;;;;;5058946;28;20427;-65
2022/01/30 04:19:52;;;;;;;12.63;3.07;;;5.90;1.00;;;;;;5061701;28;20177;-65
2022/01/30 04:22:17;;;;;;;8.70;2.63;;;5.90;1.00;;;;;;5061588;28;20427;-64
2022/01/30 04:24:43;;;;;;;22.97;3.47;;;6.00;1.00;;;;;;5060427;28;20216;-68
2022/01/30 04:27:08;;;;;;;20.90;2.83;;;5.90;1.00;;;;;;5041331;28;20192;-66
2022/01/30 04:29:35;;;;;;;10.40;2.63;;;5.90;1.00;;;;;;5057411;28;20260;-66
2022/01/30 04:32:02;;;;;;;11.40;3.03;;;5.90;1.00;;;;;;5057077;28;20300;-67
2022/01/30 04:34:28;;;;;;;26.60;3.13;;;5.80;1.00;;;;;;5060007;28;20430;-66
2022/01/30 04:37:15;;;;;;;10.17;3.77;;;5.80;1.00;;;;;;5062179;28;20430;-66
2022/01/30 04:53:51;;;;;;;8.53;2.77;;;5.80;1.00;;;;;;5061726;28;20529;-67
2022/01/30 05:09:41;;;;;;;18.70;4.00;;;5.70;1.00;;;;;;5023852;28;20481;-66
2022/01/30 05:12:07;;;;;;;20.13;3.30;;;5.70;1.00;;;;;;5063722;28;20478;-65
2022/01/30 05:14:35;;;;;;;22.57;3.33;;;5.70;1.00;;;;;;5061179;28;20472;-65
2022/01/30 05:17:02;;;;;;;19.10;5.37;;;5.70;1.00;;;;;;5061172;28;20431;-67
2022/01/30 05:19:28;;;;;;;21.00;3.20;;;5.70;1.00;;;;;;5063736;28;20475;-66
2022/01/30 05:21:55;;;;;;;17.00;3.50;;;5.70;99.90;;;;;;5064471;28;20419;-73
2022/01/30 05:24:21;;;;;;;13.20;3.50;;;5.70;99.90;;;;;;5062427;28;20216;-73
2022/01/30 05:26:47;;;;;;;17.20;3.43;;;5.70;99.90;;;;;;5061071;28;20451;-72
2022/01/30 05:29:14;;;;;;;18.63;4.70;;;5.70;99.90;;;;;;5061545;28;20915;-70
2022/01/30 05:31:40;;;;;;;18.30;4.03;;;5.70;99.90;;;;;;5064217;28;20481;-71
2022/01/30 05:34:06;;;;;;;10.50;3.90;;;5.70;99.90;;;;;;5064148;28;20475;-72
2022/01/30 05:36:32;;;;;;;16.67;2.63;;;5.60;99.90;;;;;;5060781;28;20422;-71
2022/01/30 05:39:00;;;;;;;28.27;3.83;;;5.60;99.90;;;;;;5060709;28;20443;-73
2022/01/30 05:41:26;;;;;;;10.50;2.80;;;5.60;99.90;;;;;;5068769;28;20188;-72
2022/01/30 05:43:57;;;;;;;26.30;4.57;;;5.70;99.90;;;;;;5060761;28;20477;-72
2022/01/30 05:46:33;;;;;;;15.77;2.80;;;5.60;99.90;;;;;;5062621;28;20189;-73
2022/01/30 05:49:01;;;;;;;7.30;4.00;;;5.60;99.90;;;;;;5063016;28;20418;-72
2022/01/30 05:51:27;;;;;;;18.13;3.23;;;5.60;99.90;;;;;;5061383;28;20505;-74
2022/01/30 05:53:52;;;;;;;25.30;3.23;;;5.60;99.90;;;;;;5060411;28;20493;-73
2022/01/30 05:56:18;;;;;;;15.27;3.43;;;5.50;99.90;;;;;;5061924;28;20191;-74
2022/01/30 05:58:43;;;;;;;24.50;4.13;;;5.40;99.90;;;;;;5045772;28;20763;-72
2022/01/30 06:01:08;;;;;;;24.63;4.33;;;5.40;99.90;;;;;;5067596;28;20757;-72
2022/01/30 06:03:34;;;;;;;16.67;4.80;;;5.40;99.90;;;;;;5060318;28;20259;-71
2022/01/30 06:06:02;;;;;;;24.80;3.73;;;5.40;99.90;;;;;;5060361;28;20189;-65
2022/01/30 06:11:06;;;;;;;9.73;2.90;;;5.40;99.90;;;;;;5065954;28;20799;-65
2022/01/30 06:13:31;;;;;;;11.60;3.03;;;5.30;99.90;;;;;;5060184;28;20574;-65
2022/01/30 06:15:57;;;;;;;8.60;2.43;;;5.30;99.90;;;;;;5060034;28;20994;-65
2022/01/30 06:18:23;;;;;;;17.67;4.80;;;5.30;99.90;;;;;;5044119;28;20270;-67
2022/01/30 06:20:49;;;;;;;15.00;3.90;;;5.30;99.90;;;;;;5063346;28;20914;-66
2022/01/30 06:23:15;;;;;;;11.30;3.00;;;5.30;99.90;;;;;;5062328;28;20180;-70
2022/01/30 06:25:40;;;;;;;24.83;4.70;;;5.40;99.90;;;;;;5059539;28;20475;-70
2022/01/30 06:28:06;;;;;;;13.80;3.70;;;5.30;99.90;;;;;;5059878;28;20185;-70
2022/01/30 06:30:31;;;;;;;12.93;4.03;;;5.30;99.90;;;;;;5062895;28;20200;-68
2022/01/30 06:32:57;;;;;;;11.37;3.50;;;5.40;99.90;;;;;;5062931;28;20216;-70
2022/01/30 06:35:22;;;;;;;22.27;6.40;;;5.30;99.90;;;;;;5060942;28;20215;-70
2022/01/30 06:37:48;;;;;;;18.53;4.67;;;5.30;99.90;;;;;;5059713;28;20629;-70
2022/01/30 06:40:13;;;;;;;31.97;6.47;;;5.30;99.90;;;;;;5062779;28;20176;-71
2022/01/30 06:42:39;;;;;;;18.00;4.33;;;5.30;99.90;;;;;;5045132;28;20173;-72
2022/01/30 06:45:06;;;;;;;14.23;3.10;;;5.30;99.90;;;;;;5062885;28;20181;-70
2022/01/30 06:47:31;;;;;;;26.00;4.87;;;5.20;64.80;;;;;;5059334;28;20177;-66
2022/01/30 06:49:57;;;;;;;12.47;4.20;;;5.30;65.70;;;;;;5053457;28;20795;-71
2022/01/30 06:52:22;;;;;;;21.60;5.03;;;5.20;84.20;;;;;;5059264;28;20848;-71
2022/01/30 06:54:48;;;;;;;16.63;3.70;;;5.20;99.90;;;;;;5041467;28;20644;-70
2022/01/30 06:57:14;;;;;;;18.50;4.03;;;5.10;99.90;;;;;;5059992;28;20275;-71
2022/01/30 06:59:39;;;;;;;16.53;3.40;;;5.00;99.90;;;;;;5048417;28;20641;-70
2022/01/30 07:02:06;;;;;;;12.77;4.07;;;5.10;99.90;;;;;;5065128;28;20242;-75
2022/01/30 07:04:32;;;;;;;22.67;4.47;;;5.10;99.90;;;;;;5052977;28;20188;-74
2022/01/30 07:06:57;;;;;;;12.83;3.90;;;5.10;99.90;;;;;;5070905;28;20488;-67
2022/01/30 07:09:23;;;;;;;17.60;4.13;;;5.10;99.90;;;;;;5071169;28;20175;-68
2022/01/30 07:11:49;;;;;;;18.70;4.13;;;5.10;99.90;;;;;;5070916;28;20740;-67
2022/01/30 07:14:14;;;;;;;24.13;4.33;;;5.00;99.90;;;;;;5063276;28;20598;-69
2022/01/30 07:16:40;;;;;;;20.77;4.60;;;5.10;99.90;;;;;;5048996;28;20606;-70
2022/01/30 07:19:05;;;;;;;16.53;3.80;;;5.10;99.90;;;;;;5071064;28;20578;-70
2022/01/30 07:21:31;;;;;;;15.50;3.70;;;5.10;99.90;;;;;;5070750;28;20690;-67
2022/01/30 07:23:57;;;;;;;14.60;3.17;;;5.10;99.90;;;;;;5071383;28;20180;-73
2022/01/30 07:26:22;;;;;;;22.53;3.97;;;5.10;79.00;;;;;;5053682;28;20503;-67
2022/01/30 07:28:48;;;;;;;21.00;3.63;;;5.20;75.40;;;;;;5045873;28;20555;-68
2022/01/30 07:31:13;;;;;;;17.77;5.33;;;5.20;66.50;;;;;;5065160;28;20212;-68
2022/01/30 07:33:40;;;;;;;18.83;4.10;;;5.10;74.70;;;;;;5051577;28;20197;-69
2022/01/30 07:36:07;;;;;;;24.73;6.70;;;5.10;99.90;;;;;;5056939;28;20640;-70
2022/01/30 07:38:34;;;;;;;6.57;3.67;;;5.10;99.90;;;;;;5066940;28;20414;-66
2022/01/30 07:41:00;;;;;;;18.47;3.67;;;5.10;68.70;;;;;;5066701;28;20518;-66
2022/01/30 07:43:25;;;;;;;12.97;3.63;;;5.20;36.10;;;;;;5062091;28;20505;-68
2022/01/30 07:45:51;;;;;;;17.47;4.07;;;5.20;84.20;;;;;;5059748;28;20177;-68
2022/01/30 07:48:18;;;;;;;7.50;3.40;;;5.20;72.70;;;;;;5060252;28;20189;-67
2022/01/30 07:50:44;;;;;;;29.03;4.10;;;5.20;71.30;;;;;;5065903;28;20172;-66
2022/01/30 07:53:09;;;;;;;18.40;4.80;;;5.20;25.10;;;;;;5069339;28;20874;-65
2022/01/30 07:55:35;;;;;;;17.37;4.90;;;5.30;63.60;;;;;;5051287;28;20488;-65
2022/01/30 07:58:01;;;;;;;26.60;4.93;;;5.30;89.80;;;;;;5069119;28;20199;-71
2022/01/30 08:00:26;;;;;;;35.33;6.77;;;5.10;53.70;;;;;;5067943;28;20703;-72
2022/01/30 08:02:52;;;;;;;15.77;3.73;;;5.20;48.50;;;;;;5061414;28;20660;-65
2022/01/30 08:05:17;;;;;;;16.20;4.77;;;5.30;56.50;;;;;;5061380;28;20242;-65
2022/01/30 08:07:43;;;;;;;23.80;3.30;;;5.30;74.90;;;;;;5059632;28;20193;-65
2022/01/30 08:10:08;;;;;;;25.70;4.30;;;5.30;76.10;;;;;;5062034;28;21001;-65
2022/01/30 08:12:35;;;;;;;26.70;3.63;;;5.40;99.90;;;;;;5064944;28;20736;-66
2022/01/30 08:15:01;;;;;;;26.47;5.47;;;5.40;99.90;;;;;;5066572;28;20591;-64
2022/01/30 08:17:27;;;;;;;19.83;4.87;;;5.40;99.90;;;;;;5064222;28;20462;-69
2022/01/30 08:19:52;;;;;;;29.50;5.13;;;5.50;99.90;;;;;;5067717;28;20189;-71
2022/01/30 08:22:19;;;;;;;19.00;4.60;;;5.50;99.90;;;;;;5072018;28;20211;-64
2022/01/30 08:24:45;;;;;;;33.70;5.77;;;5.40;99.90;;;;;;5074070;28;20307;-63
2022/01/30 08:27:10;;;;;;;26.73;5.13;;;5.40;99.90;;;;;;5055355;28;21017;-62
2022/01/30 08:29:37;;;;;;;25.73;6.50;;;5.40;99.90;;;;;;5073590;28;20188;-63
2022/01/30 08:32:04;;;;;;;20.23;4.60;;;5.40;99.90;;;;;;5073552;28;20215;-63
2022/01/30 08:34:30;;;;;;;23.30;5.50;;;5.40;99.90;;;;;;5074277;28;20547;-64
2022/01/30 08:36:55;;;;;;;41.23;7.30;;;5.50;99.90;;;;;;5073156;28;20431;-68
2022/01/30 08:39:21;;;;;;;35.47;8.53;;;5.50;99.90;;;;;;5072267;28;20184;-65
2022/01/30 08:41:46;;;;;;;34.73;8.10;;;5.50;99.90;;;;;;5067478;28;20192;-63
2022/01/30 08:44:12;;;;;;;36.53;9.00;;;5.50;99.90;;;;;;5070762;28;20184;-63
2022/01/30 08:46:37;;;;;;;46.53;6.97;;;5.40;47.70;;;;;;5072531;28;20187;-63
2022/01/30 08:49:03;;;;;;;31.47;8.50;;;5.40;99.90;;;;;;5072385;28;20185;-67
2022/01/30 08:51:28;;;;;;;24.60;5.00;;;5.40;99.90;;;;;;5072167;28;20265;-62
2022/01/30 08:53:54;;;;;;;31.57;5.43;;;5.20;99.90;;;;;;5072159;28;20192;-62
2022/01/30 08:56:21;;;;;;;36.80;7.53;;;5.10;99.90;;;;;;5072106;28;20180;-63
2022/01/30 08:58:48;;;;;;;33.87;5.80;;;5.10;1.40;;;;;;5054275;28;20652;-62
2022/01/30 09:01:14;;;;;;;33.27;4.77;;;5.10;1.00;;;;;;5072021;28;20979;-61
2022/01/30 09:03:40;;;;;;;25.53;4.97;;;5.00;1.00;;;;;;5072058;28;20438;-64
2022/01/30 09:06:06;;;;;;;41.30;7.57;;;5.00;16.80;;;;;;5073262;28;20250;-66
2022/01/30 09:08:32;;;;;;;25.23;6.23;;;5.00;1.00;;;;;;5065086;28;20438;-66
2022/01/30 09:10:58;;;;;;;31.23;7.00;;;5.10;1.00;;;;;;5072332;28;20191;-63
2022/01/30 09:13:24;;;;;;;30.47;5.77;;;5.20;99.90;;;;;;5071973;28;20188;-64
2022/01/30 09:15:56;;;;;;;29.10;5.23;;;5.20;99.90;;;;;;5072293;28;20200;-65
2022/01/30 09:18:22;;;;;;;27.60;5.67;;;5.20;99.90;;;;;;5071988;28;20912;-68
2022/01/30 09:20:47;;;;;;;32.30;7.43;;;5.40;72.20;;;;;;5054434;28;20442;-67
2022/01/30 09:23:13;;;;;;;36.27;8.13;;;5.50;56.70;;;;;;5053020;28;20184;-65
2022/01/30 09:25:39;;;;;;;29.00;7.13;;;5.70;99.90;;;;;;5071614;28;20574;-69
2022/01/30 09:28:05;;;;;;;31.00;7.93;;;5.50;99.90;;;;;;5071582;28;20187;-63
2022/01/30 09:30:31;;;;;;;26.13;5.90;;;5.60;99.90;;;;;;5071604;28;20443;-70
2022/01/30 09:32:57;;;;;;;31.20;7.33;;;5.90;99.90;;;;;;5065716;28;20217;-68
2022/01/30 09:35:23;;;;;;;36.20;6.77;;;5.90;99.90;;;;;;5062857;28;20527;-63
2022/01/30 09:37:48;;;;;;;26.83;6.00;;;5.90;99.90;;;;;;5064244;28;20207;-63
2022/01/30 09:40:14;;;;;;;23.63;5.60;;;6.00;99.90;;;;;;5064062;28;20450;-65
2022/01/30 09:42:44;;;;;;;20.93;6.57;;;5.90;99.90;;;;;;5064032;28;20640;-62
2022/01/30 09:45:11;;;;;;;19.60;6.03;;;6.20;99.90;;;;;;5063809;28;20218;-63
2022/01/30 09:47:37;;;;;;;27.93;6.33;;;6.40;99.90;;;;;;5060582;28;20427;-63
2022/01/30 09:50:05;;;;;;;36.70;8.03;;;6.20;1.00;;;;;;5060390;28;20434;-68
2022/01/30 09:52:30;;;;;;;49.83;6.73;;;6.30;1.00;;;;;;5063598;28;20961;-67
2022/01/30 09:54:56;;;;;;;20.77;5.83;;;6.30;1.00;;;;;;5064001;28;20430;-66
2022/01/30 09:57:22;;;;;;;40.10;6.93;;;6.20;1.00;;;;;;5061789;28;20188;-63
2022/01/30 09:59:48;;;;;;;37.73;7.40;;;6.20;1.00;;;;;;5061590;28;20276;-69
2022/01/30 10:02:14;;;;;;;29.27;5.77;;;6.30;1.00;;;;;;5063898;28;20185;-68
2022/01/30 10:04:40;;;;;;;28.27;9.20;;;6.40;1.00;;;;;;5063737;28;20184;-65
2022/01/30 10:07:19;;;;;;;26.40;5.87;;;6.40;1.00;;;;;;5063766;28;20427;-64
2022/01/30 10:09:47;;;;;;;36.70;6.77;;;6.40;1.00;;;;;;5060189;28;20434;-66
2022/01/30 10:12:24;;;;;;;27.33;7.20;;;6.20;1.00;;;;;;5063291;28;20974;-68
2022/01/30 10:15:00;;;;;;;35.47;5.93;;;6.20;1.00;;;;;;5063229;28;20410;-69
2022/01/30 10:17:39;;;;;;;32.67;7.43;;;6.10;1.00;;;;;;5061081;28;20429;-69
2022/01/30 10:20:12;;;;;;;51.27;9.13;;;6.10;1.00;;;;;;5067660;28;20427;-69
2022/01/30 10:22:54;;;;;;;33.27;5.87;;;6.10;1.00;;;;;;5060993;28;20440;-67
2022/01/30 10:25:31;;;;;;;44.67;7.90;;;6.10;1.00;;;;;;5070313;28;20493;-70
2022/01/30 10:28:05;;;;;;;54.10;8.47;;;6.00;1.00;;;;;;5063392;28;20529;-70
2022/01/30 10:30:45;;;;;;;40.97;6.80;;;6.00;1.00;;;;;;5062969;28;20422;-71
2022/01/30 10:33:14;;;;;;;35.77;7.60;;;6.00;1.00;;;;;;5066921;28;20878;-70
2022/01/30 10:35:57;;;;;;;33.93;6.50;;;6.30;1.00;;;;;;5063159;28;20415;-70
2022/01/30 10:38:31;;;;;;;31.93;7.03;;;6.50;1.00;;;;;;5069297;28;20448;-67
2022/01/30 10:41:11;;;;;;;30.73;6.87;;;6.50;1.00;;;;;;5042803;28;20439;-64
2022/01/30 10:43:55;;;;;;;29.63;6.53;;;6.40;1.00;;;;;;5058828;28;20443;-66
2022/01/30 10:46:54;;;;;;;36.67;7.03;;;6.40;1.00;;;;;;5068611;28;20430;-66
2022/01/30 10:49:22;;;;;;;32.77;6.70;;;6.40;1.00;;;;;;5065365;28;20489;-68
2022/01/30 10:51:58;;;;;;;40.93;7.63;;;6.30;1.00;;;;;;5063029;28;20466;-68
2022/01/30 10:54:29;;;;;;;35.83;6.40;;;6.20;1.00;;;;;;5066165;28;20421;-64
2022/01/30 10:57:06;;;;;;;23.53;5.80;;;6.30;1.00;;;;;;5048461;28;20431;-65
2022/01/30 10:59:33;;;;;;;25.20;6.90;;;6.20;1.00;;;;;;5069639;28;20434;-66
2022/01/30 11:02:19;;;;;;;25.90;6.37;;;6.20;1.00;;;;;;5070147;28;20521;-66
2022/01/30 11:04:47;;;;;;;26.53;5.23;;;6.20;1.00;;;;;;5063182;28;20485;-65
2022/01/30 11:07:20;;;;;;;44.20;7.00;;;6.20;1.00;;;;;;5062945;28;20454;-65
2022/01/30 11:10:11;;;;;;;30.03;6.90;;;6.30;1.00;;;;;;5070112;28;20914;-63
2022/01/30 11:12:56;;;;;;;34.50;6.00;;;6.30;1.00;;;;;;5058878;28;20486;-63
2022/01/30 11:17:55;;;;;;;27.33;6.30;;;6.30;1.00;;;;;;5060727;28;20459;-67
2022/01/30 11:20:23;;;;;;;28.43;6.40;;;6.20;1.00;;;;;;5069680;28;20945;-68
2022/01/30 11:22:51;;;;;;;42.80;7.30;;;6.20;1.00;;;;;;5067970;28;20465;-73
2022/01/30 11:25:18;;;;;;;34.40;5.90;;;6.30;1.00;;;;;;5060765;28;20477;-68
2022/01/30 11:27:46;;;;;;;33.47;6.53;;;6.30;1.00;;;;;;5063714;28;20518;-74
2022/01/30 11:30:12;;;;;;;33.90;7.10;;;6.30;1.00;;;;;;5069638;28;20429;-67
2022/01/30 11:32:39;;;;;;;26.87;5.93;;;6.40;1.00;;;;;;5067463;28;20470;-67
2022/01/30 11:35:05;;;;;;;30.90;8.00;;;6.30;1.00;;;;;;5062782;28;20437;-67
2022/01/30 11:37:36;;;;;;;37.23;6.83;;;6.30;1.00;;;;;;5069655;28;20458;-72
2022/01/30 11:40:11;;;;;;;45.63;7.80;;;6.30;1.00;;;;;;5051486;28;20956;-66
2022/01/30 11:42:44;;;;;;;25.70;5.20;;;6.60;1.00;;;;;;5071140;28;20856;-71
2022/01/30 11:45:13;;;;;;;31.53;6.67;;;6.40;1.00;;;;;;5069176;28;20430;-74
2022/01/30 11:47:48;;;;;;;29.70;7.30;;;6.40;1.00;;;;;;5068700;28;21153;-73
2022/01/30 11:50:17;;;;;;;43.67;7.33;;;6.40;1.00;;;;;;5066963;28;20442;-70
2022/01/30 11:53:00;;;;;;;37.03;6.53;;;6.40;1.00;;;;;;5069444;28;21060;-69
2022/01/30 11:55:49;;;;;;;26.27;5.30;;;6.40;1.00;;;;;;5063637;28;20431;-66
2022/01/30 11:58:30;;;;;;;33.10;8.87;;;6.40;1.00;;;;;;5064047;28;20439;-71
2022/01/30 12:00:58;;;;;;;61.73;7.77;;;6.40;1.00;;;;;;5063892;28;20430;-67
2022/01/30 12:03:32;;;;;;;22.87;6.60;;;6.40;1.00;;;;;;5061422;28;20503;-66
2022/01/30 12:06:29;;;;;;;41.43;6.50;;;6.50;1.00;;;;;;5066233;28;20430;-67
2022/01/30 12:08:56;;;;;;;39.63;7.00;;;6.50;1.00;;;;;;5045692;28;20946;-71
2022/01/30 12:11:36;;;;;;;35.60;7.80;;;6.50;1.00;;;;;;5067177;28;20926;-75
2022/01/30 12:14:30;;;;;;;33.67;7.20;;;6.50;1.00;;;;;;5065248;28;20477;-75
2022/01/30 12:16:57;;;;;;;40.33;5.90;;;6.60;1.00;;;;;;5050856;28;21247;-70
2022/01/30 12:19:41;;;;;;;28.53;5.33;;;6.60;1.00;;;;;;5065354;28;20422;-71
2022/01/30 12:22:16;;;;;;;33.57;6.87;;;6.70;1.00;;;;;;5044936;28;20484;-66
2022/01/30 12:24:47;;;;;;;26.57;5.80;;;6.60;1.00;;;;;;5066154;28;20462;-68
2022/01/30 12:27:14;;;;;;;64.23;7.47;;;6.70;1.00;;;;;;5057374;28;20497;-66
2022/01/30 12:29:44;;;;;;;36.47;6.67;;;6.70;1.00;;;;;;5067249;28;20434;-68
2022/01/30 12:32:24;;;;;;;31.13;6.67;;;6.70;2.30;;;;;;5066617;28;20514;-68
2022/01/30 12:34:52;;;;;;;22.97;6.37;;;6.70;1.00;;;;;;5064294;28;20429;-69
2022/01/30 12:37:38;;;;;;;31.47;7.37;;;6.60;2.50;;;;;;5061921;28;20435;-67
2022/01/30 12:40:10;;;;;;;34.43;6.87;;;6.60;3.80;;;;;;5066542;28;20469;-67
2022/01/30 12:42:35;;;;;;;40.10;8.23;;;6.60;3.20;;;;;;5062835;28;20434;-68
2022/01/30 12:45:04;;;;;;;74.50;7.40;;;6.70;3.30;;;;;;5069516;28;20922;-69
2022/01/30 12:47:29;;;;;;;36.93;5.00;;;6.70;4.00;;;;;;5052064;28;20257;-69
2022/01/30 12:49:59;;;;;;;35.80;7.83;;;6.70;5.70;;;;;;5069304;28;20414;-66
2022/01/30 12:54:56;;;;;;;47.70;8.90;;;6.70;12.60;;;;;;5069660;28;20434;-65
2022/01/30 12:57:22;;;;;;;26.97;7.43;;;6.60;10.50;;;;;;5068809;28;20496;-66
2022/01/30 12:59:56;;;;;;;36.97;7.40;;;6.70;8.80;;;;;;5052769;28;20430;-67
2022/01/30 13:02:25;;;;;;;28.87;6.13;;;6.70;13.40;;;;;;5054457;28;21061;-69
2022/01/30 13:05:04;;;;;;;32.60;5.33;;;6.70;14.70;;;;;;5075842;28;20521;-69
2022/01/30 13:07:30;;;;;;;28.03;6.10;;;6.80;16.40;;;;;;5068112;28;21008;-68
2022/01/30 13:10:09;;;;;;;32.60;6.70;;;6.70;16.20;;;;;;5075132;28;20419;-72
2022/01/30 13:12:35;;;;;;;34.93;6.43;;;6.70;15.80;;;;;;5066705;28;20223;-64
2022/01/30 13:15:06;;;;;;;33.33;7.00;;;6.70;16.80;;;;;;5068578;28;20499;-68
2022/01/30 13:17:31;;;;;;;28.13;6.70;;;6.70;18.70;;;;;;5071606;28;20946;-66
2022/01/30 13:19:57;;;;;;;27.60;6.07;;;6.70;18.40;;;;;;5056080;28;20457;-65
2022/01/30 13:22:34;;;;;;;33.17;5.93;;;6.60;19.10;;;;;;5074906;28;20260;-65
2022/01/30 13:25:03;;;;;;;49.17;7.30;;;6.70;16.80;;;;;;5074284;28;20227;-66
2022/01/30 13:27:29;;;;;;;40.27;6.00;;;6.70;22.60;;;;;;5071100;28;20434;-66
2022/01/30 13:29:55;;;;;;;27.30;5.30;;;6.60;18.50;;;;;;5069700;28;20422;-68
2022/01/30 13:32:24;;;;;;;38.70;6.13;;;6.60;25.30;;;;;;5054951;28;20497;-67
2022/01/30 13:34:50;;;;;;;38.27;5.90;;;6.60;23.30;;;;;;5067899;28;20575;-75
2022/01/30 13:37:20;;;;;;;29.50;6.10;;;6.60;22.20;;;;;;5071960;28;20529;-65
2022/01/30 13:48:06;;;;;;;39.77;7.70;;;6.70;24.20;;;;;;5067890;28;20492;-65
2022/01/30 13:50:32;;;;;;;30.07;5.40;;;6.60;24.20;;;;;;5069853;28;20440;-67
2022/01/30 13:53:02;;;;;;;22.07;4.90;;;6.60;23.30;;;;;;5070536;28;20462;-67
2022/01/30 13:55:27;;;;;;;31.17;6.67;;;6.70;22.30;;;;;;5052333;28;20473;-72
2022/01/30 13:57:57;;;;;;;33.43;7.23;;;6.70;22.90;;;;;;5067520;28;20799;-77
2022/01/30 14:00:23;;;;;;;25.03;6.03;;;6.70;25.60;;;;;;5066089;28;20172;-73
2022/01/30 14:02:54;;;;;;;29.57;5.87;;;6.70;30.20;;;;;;5044866;28;20512;-64
2022/01/30 14:05:28;;;;;;;34.83;6.27;;;6.70;26.10;;;;;;5068141;28;20782;-63
2022/01/30 14:07:56;;;;;;;32.60;6.30;;;6.70;31.90;;;;;;5069108;28;20425;-63
2022/01/30 14:10:28;;;;;;;28.77;5.53;;;6.70;29.00;;;;;;5069718;28;20472;-63
2022/01/30 14:13:01;;;;;;;28.43;7.37;;;6.70;29.40;;;;;;5068751;28;20508;-65